createdAt,value
2023-03-03T00:00:54.342Z,1015.65
2023-03-03T00:01:54.284Z,1015.62
2023-03-03T00:02:54.257Z,1015.64
2023-03-03T00:03:54.212Z,1015.62
2023-03-03T00:04:54.148Z,1015.62
2023-03-03T00:06:03.654Z,1015.58
2023-03-03T00:06:55.057Z,1015.62
2023-03-03T00:07:55.045Z,1015.59
2023-03-03T00:08:55.303Z,1015.60
2023-03-03T00:09:54.507Z,1015.59
2023-03-03T00:10:54.835Z,1015.55
2023-03-03T00:11:53.898Z,1015.55
2023-03-03T00:12:53.903Z,1015.56
2023-03-03T00:13:59.042Z,1015.95
2023-03-03T00:14:53.751Z,1015.60
2023-03-03T00:15:53.742Z,1015.62
2023-03-03T00:16:54.414Z,1015.64
2023-03-03T00:17:53.563Z,1015.99
2023-03-03T00:18:53.532Z,1015.69
2023-03-03T00:19:53.633Z,1015.62
2023-03-03T00:20:53.471Z,1015.65
2023-03-03T00:21:54.915Z,1015.67
2023-03-03T00:22:56.112Z,1015.68
2023-03-03T00:23:53.390Z,1016.01
2023-03-03T00:24:53.414Z,1016.01
2023-03-03T00:25:53.291Z,1015.67
2023-03-03T00:26:53.168Z,1015.69
2023-03-03T00:27:53.105Z,1015.68
2023-03-03T00:28:53.105Z,1015.66
2023-03-03T00:29:53.014Z,1016.00
2023-03-03T00:30:53.028Z,1016.04
2023-03-03T00:31:53.053Z,1016.09
2023-03-03T00:32:52.899Z,1016.01
2023-03-03T00:33:52.831Z,1016.01
2023-03-03T00:34:52.845Z,1015.68
2023-03-03T00:35:52.773Z,1015.66
2023-03-03T00:36:54.558Z,1015.72
2023-03-03T00:37:56.933Z,1015.73
2023-03-03T00:38:54.424Z,1015.67
2023-03-03T00:39:54.419Z,1015.71
2023-03-03T00:40:53.577Z,1015.72
2023-03-03T00:41:53.923Z,1015.77
2023-03-03T00:42:52.560Z,1015.88
2023-03-03T00:43:52.366Z,1015.82
2023-03-03T00:44:52.301Z,1015.81
2023-03-03T00:45:52.397Z,1015.80
2023-03-03T00:46:52.217Z,1015.75
2023-03-03T00:47:52.191Z,1015.76
2023-03-03T00:48:52.139Z,1015.78
2023-03-03T00:49:52.096Z,1015.81
2023-03-03T00:50:52.019Z,1015.79
2023-03-03T00:51:51.999Z,1015.75
2023-03-03T00:52:51.960Z,1015.74
2023-03-03T00:53:51.904Z,1015.78
2023-03-03T00:54:51.879Z,1016.04
2023-03-03T00:55:51.808Z,1016.07
2023-03-03T00:56:51.759Z,1016.06
2023-03-03T00:57:51.737Z,1016.06
2023-03-03T00:58:51.712Z,1016.11
2023-03-03T00:59:51.631Z,1015.78
2023-03-03T01:00:51.606Z,1015.81
2023-03-03T01:01:51.560Z,1015.81
2023-03-03T01:02:51.508Z,1016.04
2023-03-03T01:03:51.440Z,1016.16
2023-03-03T01:04:51.411Z,1015.82
2023-03-03T01:05:51.339Z,1015.86
2023-03-03T01:06:51.293Z,1015.84
2023-03-03T01:07:51.250Z,1015.84
2023-03-03T01:08:51.207Z,1015.85
2023-03-03T01:09:51.167Z,1015.82
2023-03-03T01:10:51.200Z,1015.87
2023-03-03T01:11:51.074Z,1015.86
2023-03-03T01:12:51.025Z,1015.87
2023-03-03T01:13:50.992Z,1015.84
2023-03-03T01:14:50.952Z,1015.86
2023-03-03T01:15:50.981Z,1015.82
2023-03-03T01:16:50.842Z,1015.78
2023-03-03T01:17:50.839Z,1015.87
2023-03-03T01:18:50.812Z,1015.84
2023-03-03T01:19:50.734Z,1015.88
2023-03-03T01:20:50.666Z,1015.85
2023-03-03T01:21:50.636Z,1015.89
2023-03-03T01:22:50.599Z,1015.89
2023-03-03T01:23:50.537Z,1015.86
2023-03-03T01:24:50.508Z,1015.85
2023-03-03T01:25:50.467Z,1015.82
2023-03-03T01:26:50.382Z,1015.88
2023-03-03T01:27:50.359Z,1015.83
2023-03-03T01:28:50.314Z,1015.87
2023-03-03T01:29:50.259Z,1015.90
2023-03-03T01:30:50.229Z,1015.95
2023-03-03T01:31:50.181Z,1015.93
2023-03-03T01:32:50.121Z,1015.90
2023-03-03T01:33:50.064Z,1015.94
2023-03-03T01:34:50.059Z,1015.95
2023-03-03T01:35:49.994Z,1015.98
2023-03-03T01:36:49.945Z,1015.99
2023-03-03T01:37:49.910Z,1015.97
2023-03-03T01:38:49.830Z,1015.96
2023-03-03T01:39:49.821Z,1015.95
2023-03-03T01:40:49.746Z,1015.93
2023-03-03T01:41:49.722Z,1015.96
2023-03-03T01:42:49.651Z,1015.98
2023-03-03T01:43:49.635Z,1016.01
2023-03-03T01:44:49.564Z,1016.05
2023-03-03T01:45:49.534Z,1016.00
2023-03-03T01:46:49.558Z,1016.01
2023-03-03T01:47:49.421Z,1016.01
2023-03-03T01:48:49.366Z,1016.04
2023-03-03T01:49:49.337Z,1016.08
2023-03-03T01:50:49.286Z,1016.06
2023-03-03T01:51:49.234Z,1016.07
2023-03-03T01:52:49.197Z,1016.03
2023-03-03T01:53:49.156Z,1016.07
2023-03-03T01:54:49.094Z,1016.01
2023-03-03T01:55:49.062Z,1016.28
2023-03-03T01:56:49.006Z,1016.32
2023-03-03T01:57:48.988Z,1016.34
2023-03-03T01:58:48.914Z,1016.33
2023-03-03T01:59:48.890Z,1016.04
2023-03-03T02:00:48.824Z,1016.32
2023-03-03T02:01:48.923Z,1015.93
2023-03-03T02:02:48.792Z,1016.14
2023-03-03T02:03:48.765Z,1015.95
2023-03-03T02:04:48.649Z,1016.21
2023-03-03T02:05:48.600Z,1015.89
2023-03-03T02:06:48.573Z,1015.88
2023-03-03T02:07:48.523Z,1015.90
2023-03-03T02:08:48.571Z,1015.89
2023-03-03T02:09:48.431Z,1015.84
2023-03-03T02:10:48.357Z,1015.94
2023-03-03T02:11:48.318Z,1015.88
2023-03-03T02:12:48.283Z,1015.88
2023-03-03T02:13:48.220Z,1015.90
2023-03-03T02:14:48.206Z,1016.21
2023-03-03T02:15:48.231Z,1016.18
2023-03-03T02:16:48.094Z,1016.17
2023-03-03T02:17:48.037Z,1016.15
2023-03-03T02:18:47.993Z,1016.15
2023-03-03T02:19:47.957Z,1015.88
2023-03-03T02:20:47.930Z,1016.18
2023-03-03T02:21:47.883Z,1015.86
2023-03-03T02:22:47.823Z,1015.85
2023-03-03T02:23:47.784Z,1015.87
2023-03-03T02:24:47.746Z,1015.88
2023-03-03T02:25:47.691Z,1015.88
2023-03-03T02:26:47.647Z,1015.95
2023-03-03T02:27:47.581Z,1015.92
2023-03-03T02:28:47.571Z,1016.30
2023-03-03T02:29:47.489Z,1016.30
2023-03-03T02:30:47.459Z,1015.92
2023-03-03T02:31:47.485Z,1015.91
2023-03-03T02:32:47.381Z,1016.24
2023-03-03T02:33:47.319Z,1016.33
2023-03-03T02:34:47.283Z,1015.96
2023-03-03T02:35:47.263Z,1016.00
2023-03-03T02:36:47.172Z,1015.99
2023-03-03T02:37:47.159Z,1016.00
2023-03-03T02:38:47.081Z,1015.94
2023-03-03T02:39:47.950Z,1015.97
2023-03-03T02:40:47.028Z,1015.97
2023-03-03T02:41:47.019Z,1015.99
2023-03-03T02:42:46.952Z,1015.95
2023-03-03T02:43:46.860Z,1015.96
2023-03-03T02:44:46.803Z,1016.29
2023-03-03T02:45:46.829Z,1015.95
2023-03-03T02:46:46.755Z,1016.26
2023-03-03T02:47:46.694Z,1016.27
2023-03-03T02:48:46.625Z,1016.02
2023-03-03T02:49:46.586Z,1016.26
2023-03-03T02:50:46.530Z,1015.94
2023-03-03T02:51:46.496Z,1015.92
2023-03-03T02:52:46.458Z,1015.93
2023-03-03T02:53:46.403Z,1015.88
2023-03-03T02:54:46.369Z,1015.96
2023-03-03T02:55:46.303Z,1015.99
2023-03-03T02:56:46.262Z,1015.98
2023-03-03T02:57:46.209Z,1015.99
2023-03-03T02:58:46.159Z,1016.00
2023-03-03T02:59:46.133Z,1015.94
2023-03-03T03:00:46.116Z,1015.97
2023-03-03T03:01:46.030Z,1016.02
2023-03-03T03:02:46.009Z,1016.03
2023-03-03T03:03:45.943Z,1016.04
2023-03-03T03:04:45.902Z,1016.06
2023-03-03T03:05:45.827Z,1016.07
2023-03-03T03:06:45.782Z,1016.09
2023-03-03T03:07:45.773Z,1016.09
2023-03-03T03:08:45.709Z,1016.13
2023-03-03T03:09:45.709Z,1016.13
2023-03-03T03:10:45.596Z,1016.16
2023-03-03T03:11:45.579Z,1016.17
2023-03-03T03:12:45.538Z,1016.54
2023-03-03T03:13:45.510Z,1016.21
2023-03-03T03:14:45.450Z,1016.13
2023-03-03T03:15:45.375Z,1016.20
2023-03-03T03:16:45.373Z,1016.16
2023-03-03T03:17:45.290Z,1016.18
2023-03-03T03:18:45.263Z,1016.16
2023-03-03T03:19:45.222Z,1016.40
2023-03-03T03:20:46.917Z,1016.10
2023-03-03T03:21:45.138Z,1016.09
2023-03-03T03:22:45.084Z,1016.15
2023-03-03T03:23:45.055Z,1016.11
2023-03-03T03:24:45.032Z,1016.10
2023-03-03T03:25:44.962Z,1016.12
2023-03-03T03:26:44.891Z,1016.14
2023-03-03T03:27:44.839Z,1016.17
2023-03-03T03:28:44.860Z,1016.13
2023-03-03T03:29:44.791Z,1016.15
2023-03-03T03:30:44.780Z,1016.10
2023-03-03T03:31:44.653Z,1016.11
2023-03-03T03:32:44.622Z,1016.09
2023-03-03T03:33:44.595Z,1016.06
2023-03-03T03:34:44.527Z,1016.10
2023-03-03T03:35:44.531Z,1016.14
2023-03-03T03:36:44.453Z,1016.14
2023-03-03T03:37:44.392Z,1016.31
2023-03-03T03:38:44.366Z,1016.22
2023-03-03T03:39:44.296Z,1016.20
2023-03-03T03:40:44.241Z,1016.23
2023-03-03T03:41:44.247Z,1016.25
2023-03-03T03:42:44.185Z,1016.33
2023-03-03T03:43:44.118Z,1016.34
2023-03-03T03:44:44.086Z,1016.33
2023-03-03T03:45:44.087Z,1016.25
2023-03-03T03:46:43.960Z,1016.20
2023-03-03T03:47:44.021Z,1016.17
2023-03-03T03:48:43.899Z,1016.16
2023-03-03T03:49:43.881Z,1016.13
2023-03-03T03:50:43.801Z,1016.13
2023-03-03T03:51:44.079Z,1016.50
2023-03-03T03:52:43.719Z,1016.16
2023-03-03T03:53:43.661Z,1016.23
2023-03-03T03:54:43.655Z,1016.31
2023-03-03T03:55:43.566Z,1016.31
2023-03-03T03:56:43.503Z,1016.33
2023-03-03T03:57:43.499Z,1016.27
2023-03-03T03:58:43.425Z,1016.63
2023-03-03T03:59:43.409Z,1016.62
2023-03-03T04:00:43.324Z,1016.24
2023-03-03T04:01:43.324Z,1016.52
2023-03-03T04:02:43.299Z,1016.18
2023-03-03T04:03:43.254Z,1016.15
2023-03-03T04:04:43.195Z,1016.09
2023-03-03T04:05:43.128Z,1016.12
2023-03-03T04:06:43.048Z,1016.14
2023-03-03T04:07:43.037Z,1016.17
2023-03-03T04:08:42.976Z,1016.08
2023-03-03T04:09:42.946Z,1016.11
2023-03-03T04:10:42.906Z,1016.09
2023-03-03T04:11:42.873Z,1016.14
2023-03-03T04:12:42.821Z,1016.18
2023-03-03T04:13:42.762Z,1016.36
2023-03-03T04:14:42.701Z,1016.17
2023-03-03T04:15:42.741Z,1016.52
2023-03-03T04:16:42.602Z,1016.56
2023-03-03T04:17:42.589Z,1016.22
2023-03-03T04:18:43.510Z,1016.30
2023-03-03T04:19:42.493Z,1016.19
2023-03-03T04:20:42.439Z,1016.23
2023-03-03T04:21:42.379Z,1016.64
2023-03-03T04:22:42.340Z,1016.67
2023-03-03T04:23:42.354Z,1016.57
2023-03-03T04:24:42.280Z,1016.71
2023-03-03T04:25:42.219Z,1016.41
2023-03-03T04:26:42.163Z,1016.79
2023-03-03T04:27:42.155Z,1016.72
2023-03-03T04:28:42.075Z,1016.73
2023-03-03T04:29:42.034Z,1016.67
2023-03-03T04:30:42.069Z,1016.66
2023-03-03T04:31:41.929Z,1016.53
2023-03-03T04:32:41.870Z,1016.49
2023-03-03T04:33:41.827Z,1016.66
2023-03-03T04:34:41.797Z,1016.36
2023-03-03T04:35:41.772Z,1016.33
2023-03-03T04:36:41.716Z,1016.33
2023-03-03T04:37:41.662Z,1016.38
2023-03-03T04:38:41.585Z,1016.48
2023-03-03T04:39:41.548Z,1016.28
2023-03-03T04:40:41.710Z,1016.62
2023-03-03T04:41:41.494Z,1016.33
2023-03-03T04:42:41.415Z,1016.34
2023-03-03T04:43:41.358Z,1016.54
2023-03-03T04:44:41.320Z,1016.38
2023-03-03T04:45:41.295Z,1016.36
2023-03-03T04:46:41.230Z,1016.67
2023-03-03T04:47:41.208Z,1016.70
2023-03-03T04:48:41.122Z,1016.73
2023-03-03T04:49:41.113Z,1016.28
2023-03-03T04:50:41.974Z,1016.71
2023-03-03T04:51:40.997Z,1016.39
2023-03-03T04:52:41.003Z,1016.75
2023-03-03T04:53:40.916Z,1016.43
2023-03-03T04:54:40.852Z,1016.38
2023-03-03T04:55:40.825Z,1016.74
2023-03-03T04:56:40.778Z,1016.44
2023-03-03T04:57:40.721Z,1016.80
2023-03-03T04:58:40.705Z,1016.77
2023-03-03T04:59:40.647Z,1016.86
2023-03-03T05:00:40.606Z,1016.46
2023-03-03T05:01:40.567Z,1016.45
2023-03-03T05:02:40.526Z,1016.39
2023-03-03T05:03:40.470Z,1016.43
2023-03-03T05:04:40.461Z,1016.43
2023-03-03T05:05:40.358Z,1016.49
2023-03-03T05:06:40.322Z,1016.40
2023-03-03T05:07:40.288Z,1016.40
2023-03-03T05:08:40.244Z,1016.43
2023-03-03T05:09:40.159Z,1016.49
2023-03-03T05:10:40.125Z,1016.45
2023-03-03T05:11:40.102Z,1016.41
2023-03-03T05:12:40.042Z,1016.43
2023-03-03T05:13:40.027Z,1016.40
2023-03-03T05:14:39.983Z,1016.47
2023-03-03T05:15:42.222Z,1016.45
2023-03-03T05:16:39.868Z,1016.46
2023-03-03T05:17:39.844Z,1016.46
2023-03-03T05:18:39.748Z,1016.52
2023-03-03T05:19:39.724Z,1016.52
2023-03-03T05:20:39.660Z,1016.52
2023-03-03T05:21:39.643Z,1016.49
2023-03-03T05:22:39.597Z,1016.46
2023-03-03T05:23:39.530Z,1016.83
2023-03-03T05:24:39.490Z,1016.42
2023-03-03T05:25:39.431Z,1016.44
2023-03-03T05:26:39.385Z,1016.53
2023-03-03T05:27:39.341Z,1016.49
2023-03-03T05:28:39.315Z,1016.46
2023-03-03T05:29:39.253Z,1016.45
2023-03-03T05:30:39.221Z,1016.81
2023-03-03T05:31:39.265Z,1016.39
2023-03-03T05:32:39.142Z,1016.48
2023-03-03T05:33:39.100Z,1016.43
2023-03-03T05:34:39.032Z,1016.50
2023-03-03T05:35:39.039Z,1016.47
2023-03-03T05:36:38.938Z,1016.51
2023-03-03T05:37:38.935Z,1016.52
2023-03-03T05:38:38.872Z,1016.52
2023-03-03T05:39:38.801Z,1016.90
2023-03-03T05:40:38.749Z,1016.66
2023-03-03T05:41:38.701Z,1016.57
2023-03-03T05:42:38.713Z,1016.61
2023-03-03T05:43:38.614Z,1016.59
2023-03-03T05:44:38.584Z,1016.57
2023-03-03T05:45:38.572Z,1016.60
2023-03-03T05:46:38.491Z,1016.91
2023-03-03T05:47:38.424Z,1016.63
2023-03-03T05:48:38.388Z,1016.60
2023-03-03T05:49:38.328Z,1016.53
2023-03-03T05:50:38.293Z,1016.51
2023-03-03T05:51:38.292Z,1016.79
2023-03-03T05:52:38.255Z,1016.51
2023-03-03T05:53:38.159Z,1016.81
2023-03-03T05:54:38.108Z,1016.47
2023-03-03T05:55:38.073Z,1016.51
2023-03-03T05:56:38.018Z,1016.47
2023-03-03T05:57:37.982Z,1016.65
2023-03-03T05:58:38.471Z,1016.53
2023-03-03T05:59:37.873Z,1016.84
2023-03-03T06:00:37.817Z,1016.86
2023-03-03T06:01:37.810Z,1016.49
2023-03-03T06:02:37.760Z,1016.82
2023-03-03T06:03:37.689Z,1016.57
2023-03-03T06:04:37.673Z,1016.52
2023-03-03T06:05:37.596Z,1016.56
2023-03-03T06:06:44.602Z,1016.55
2023-03-03T06:07:37.479Z,1016.58
2023-03-03T06:08:37.436Z,1016.81
2023-03-03T06:09:37.392Z,1016.58
2023-03-03T06:10:37.342Z,1016.67
2023-03-03T06:11:37.300Z,1016.81
2023-03-03T06:12:37.261Z,1016.68
2023-03-03T06:13:37.205Z,1016.76
2023-03-03T06:14:37.162Z,1016.74
2023-03-03T06:15:37.142Z,1016.73
2023-03-03T06:16:37.107Z,1016.78
2023-03-03T06:17:37.021Z,1016.82
2023-03-03T06:18:37.024Z,1016.83
2023-03-03T06:19:36.930Z,1016.83
2023-03-03T06:20:36.885Z,1016.89
2023-03-03T06:21:36.849Z,1017.00
2023-03-03T06:22:36.795Z,1016.91
2023-03-03T06:23:36.760Z,1017.24
2023-03-03T06:24:36.701Z,1016.91
2023-03-03T06:25:36.667Z,1016.92
2023-03-03T06:26:36.621Z,1016.96
2023-03-03T06:27:36.575Z,1016.94
2023-03-03T06:28:36.541Z,1016.94
2023-03-03T06:29:36.478Z,1017.04
2023-03-03T06:30:36.432Z,1017.34
2023-03-03T06:31:36.429Z,1017.35
2023-03-03T06:32:36.400Z,1016.96
2023-03-03T06:33:36.287Z,1016.98
2023-03-03T06:34:36.263Z,1016.97
2023-03-03T06:35:36.249Z,1017.00
2023-03-03T06:36:36.152Z,1017.02
2023-03-03T06:37:36.104Z,1017.41
2023-03-03T06:38:36.073Z,1017.44
2023-03-03T06:39:36.013Z,1017.13
2023-03-03T06:40:35.993Z,1017.46
2023-03-03T06:41:35.919Z,1017.46
2023-03-03T06:42:35.888Z,1017.50
2023-03-03T06:43:35.841Z,1017.49
2023-03-03T06:44:35.781Z,1017.54
2023-03-03T06:45:35.802Z,1017.54
2023-03-03T06:46:35.708Z,1017.54
2023-03-03T06:47:35.659Z,1017.57
2023-03-03T06:48:35.615Z,1017.57
2023-03-03T06:49:35.556Z,1017.25
2023-03-03T06:50:35.506Z,1017.20
2023-03-03T06:51:35.459Z,1017.21
2023-03-03T06:52:35.437Z,1017.24
2023-03-03T06:53:35.368Z,1017.22
2023-03-03T06:54:35.337Z,1017.38
2023-03-03T06:55:35.299Z,1017.24
2023-03-03T06:56:35.234Z,1017.26
2023-03-03T06:57:35.184Z,1017.27
2023-03-03T06:58:35.142Z,1017.58
2023-03-03T06:59:35.093Z,1017.65
2023-03-03T07:00:35.064Z,1017.36
2023-03-03T07:01:35.000Z,1017.69
2023-03-03T07:02:34.973Z,1017.35
2023-03-03T07:03:34.915Z,1017.31
2023-03-03T07:04:34.950Z,1017.39
2023-03-03T07:05:34.849Z,1017.72
2023-03-03T07:06:34.783Z,1017.67
2023-03-03T07:07:34.735Z,1017.34
2023-03-03T07:08:34.693Z,1017.66
2023-03-03T07:09:34.648Z,1017.71
2023-03-03T07:10:34.608Z,1017.71
2023-03-03T07:11:34.575Z,1017.36
2023-03-03T07:12:34.522Z,1017.35
2023-03-03T07:13:34.469Z,1017.37
2023-03-03T07:14:34.423Z,1017.39
2023-03-03T07:15:34.381Z,1017.40
2023-03-03T07:16:34.358Z,1017.42
2023-03-03T07:17:34.293Z,1017.51
2023-03-03T07:18:34.260Z,1017.45
2023-03-03T07:19:34.192Z,1017.47
2023-03-03T07:20:34.152Z,1017.69
2023-03-03T07:21:34.115Z,1017.81
2023-03-03T07:22:34.068Z,1017.50
2023-03-03T07:23:34.022Z,1017.72
2023-03-03T07:24:33.970Z,1017.50
2023-03-03T07:25:33.921Z,1017.48
2023-03-03T07:26:33.883Z,1017.66
2023-03-03T07:27:33.838Z,1017.59
2023-03-03T07:28:33.796Z,1017.60
2023-03-03T07:29:33.761Z,1017.61
2023-03-03T07:30:33.807Z,1017.89
2023-03-03T07:31:33.648Z,1017.71
2023-03-03T07:32:33.640Z,1017.92
2023-03-03T07:33:33.578Z,1017.58
2023-03-03T07:34:33.532Z,1017.56
2023-03-03T07:35:33.496Z,1017.57
2023-03-03T07:36:33.424Z,1017.74
2023-03-03T07:37:33.376Z,1017.93
2023-03-03T07:38:33.334Z,1017.57
2023-03-03T07:39:33.291Z,1017.64
2023-03-03T07:40:33.262Z,1017.97
2023-03-03T07:41:33.207Z,1017.64
2023-03-03T07:42:33.154Z,1017.85
2023-03-03T07:43:33.105Z,1017.67
2023-03-03T07:44:33.071Z,1017.72
2023-03-03T07:45:33.016Z,1017.72
2023-03-03T07:46:33.021Z,1017.76
2023-03-03T07:47:32.923Z,1017.73
2023-03-03T07:48:32.886Z,1017.77
2023-03-03T07:49:32.932Z,1017.77
2023-03-03T07:50:32.794Z,1017.77
2023-03-03T07:51:32.756Z,1017.79
2023-03-03T07:52:32.722Z,1017.79
2023-03-03T07:53:32.654Z,1017.79
2023-03-03T07:54:32.616Z,1017.79
2023-03-03T07:55:32.566Z,1017.81
2023-03-03T07:56:32.524Z,1017.83
2023-03-03T07:57:32.473Z,1017.87
2023-03-03T07:58:32.449Z,1017.85
2023-03-03T07:59:32.384Z,1017.87
2023-03-03T08:00:32.365Z,1017.87
2023-03-03T08:01:32.292Z,1017.86
2023-03-03T08:02:32.251Z,1017.94
2023-03-03T08:03:32.201Z,1017.97
2023-03-03T08:04:32.283Z,1017.95
2023-03-03T08:05:32.233Z,1017.96
2023-03-03T08:06:32.077Z,1018.08
2023-03-03T08:07:32.019Z,1018.04
2023-03-03T08:08:31.992Z,1018.03
2023-03-03T08:09:31.947Z,1018.36
2023-03-03T08:10:31.971Z,1018.02
2023-03-03T08:11:31.837Z,1018.38
2023-03-03T08:12:31.812Z,1018.02
2023-03-03T08:13:31.763Z,1018.42
2023-03-03T08:14:31.700Z,1018.45
2023-03-03T08:15:31.688Z,1018.45
2023-03-03T08:16:31.641Z,1018.46
2023-03-03T08:17:31.561Z,1018.49
2023-03-03T08:18:31.514Z,1018.11
2023-03-03T08:19:31.471Z,1018.56
2023-03-03T08:20:31.436Z,1018.21
2023-03-03T08:21:31.394Z,1018.25
2023-03-03T08:22:31.355Z,1018.62
2023-03-03T08:23:31.282Z,1018.56
2023-03-03T08:24:31.238Z,1018.59
2023-03-03T08:25:31.207Z,1018.61
2023-03-03T08:26:31.154Z,1018.29
2023-03-03T08:27:31.125Z,1018.63
2023-03-03T08:28:31.094Z,1018.27
2023-03-03T08:29:31.084Z,1018.29
2023-03-03T08:30:30.970Z,1018.60
2023-03-03T08:31:40.833Z,1018.31
2023-03-03T08:32:31.064Z,1018.28
2023-03-03T08:33:30.852Z,1018.27
2023-03-03T08:34:30.790Z,1018.30
2023-03-03T08:35:30.761Z,1018.35
2023-03-03T08:36:31.584Z,1018.71
2023-03-03T08:37:30.645Z,1018.39
2023-03-03T08:38:30.607Z,1018.35
2023-03-03T08:39:30.597Z,1018.67
2023-03-03T08:40:30.550Z,1018.32
2023-03-03T08:41:30.473Z,1018.72
2023-03-03T08:42:30.423Z,1018.46
2023-03-03T08:43:30.380Z,1018.44
2023-03-03T08:44:30.341Z,1018.36
2023-03-03T08:45:30.288Z,1018.46
2023-03-03T08:46:30.303Z,1018.75
2023-03-03T08:47:30.213Z,1018.44
2023-03-03T08:48:30.162Z,1018.44
2023-03-03T08:49:30.117Z,1018.77
2023-03-03T08:50:30.077Z,1018.37
2023-03-03T08:51:30.031Z,1018.67
2023-03-03T08:52:30.005Z,1018.41
2023-03-03T08:53:29.944Z,1018.41
2023-03-03T08:54:29.901Z,1018.48
2023-03-03T08:55:29.856Z,1018.43
2023-03-03T08:56:29.815Z,1018.47
2023-03-03T08:57:29.770Z,1018.43
2023-03-03T08:58:35.225Z,1018.50
2023-03-03T08:59:29.677Z,1018.50
2023-03-03T09:00:29.639Z,1018.52
2023-03-03T09:01:29.607Z,1018.53
2023-03-03T09:02:29.553Z,1018.56
2023-03-03T09:03:30.046Z,1018.56
2023-03-03T09:04:30.054Z,1018.56
2023-03-03T09:05:32.236Z,1018.56
2023-03-03T09:06:55.531Z,1018.58
2023-03-03T09:07:30.800Z,1018.57
2023-03-03T09:08:29.275Z,1018.58
2023-03-03T09:09:29.231Z,1018.64
2023-03-03T09:10:29.177Z,1018.60
2023-03-03T09:11:29.181Z,1018.65
2023-03-03T09:12:29.200Z,1018.67
2023-03-03T09:13:29.595Z,1018.67
2023-03-03T09:14:29.003Z,1018.66
2023-03-03T09:15:28.962Z,1018.66
2023-03-03T09:16:29.124Z,1018.67
2023-03-03T09:17:28.889Z,1018.67
2023-03-03T09:18:28.826Z,1018.67
2023-03-03T09:19:28.779Z,1018.71
2023-03-03T09:20:28.732Z,1018.71
2023-03-03T09:21:28.679Z,1018.78
2023-03-03T09:22:28.646Z,1018.75
2023-03-03T09:23:28.722Z,1018.73
2023-03-03T09:24:28.573Z,1018.75
2023-03-03T09:25:28.494Z,1018.80
2023-03-03T09:26:28.597Z,1018.81
2023-03-03T09:27:34.041Z,1018.82
2023-03-03T09:28:29.280Z,1018.97
2023-03-03T09:29:30.030Z,1018.90
2023-03-03T09:30:29.533Z,1018.86
2023-03-03T09:31:29.100Z,1018.97
2023-03-03T09:32:54.556Z,1018.92
2023-03-03T09:33:33.060Z,1019.25
2023-03-03T09:35:28.214Z,1019.11
2023-03-03T09:36:33.544Z,1019.31
2023-03-03T09:37:28.050Z,1019.00
2023-03-03T09:38:28.032Z,1018.95
2023-03-03T09:39:27.979Z,1019.00
2023-03-03T09:40:27.992Z,1018.97
2023-03-03T09:41:27.817Z,1018.97
2023-03-03T09:42:27.766Z,1018.99
2023-03-03T09:43:27.701Z,1019.00
2023-03-03T09:44:27.657Z,1019.02
2023-03-03T09:45:27.627Z,1019.13
2023-03-03T09:46:27.621Z,1019.07
2023-03-03T09:47:27.783Z,1019.27
2023-03-03T09:48:28.071Z,1019.13
2023-03-03T09:49:28.160Z,1019.11
2023-03-03T09:50:27.457Z,1019.43
2023-03-03T09:51:27.433Z,1019.07
2023-03-03T09:52:27.449Z,1019.45
2023-03-03T09:53:28.183Z,1019.11
2023-03-03T09:54:28.149Z,1019.15
2023-03-03T09:55:27.208Z,1019.19
2023-03-03T09:56:34.039Z,1019.15
2023-03-03T09:57:28.105Z,1019.51
2023-03-03T09:58:27.094Z,1019.11
2023-03-03T09:59:27.035Z,1019.49
2023-03-03T10:00:27.005Z,1019.20
2023-03-03T10:01:32.041Z,1019.50
2023-03-03T10:02:29.543Z,1019.56
2023-03-03T10:03:26.927Z,1019.22
2023-03-03T10:04:29.794Z,1019.18
2023-03-03T10:05:27.024Z,1019.56
2023-03-03T10:06:26.709Z,1019.25
2023-03-03T10:07:27.538Z,1019.62
2023-03-03T10:08:26.612Z,1019.25
2023-03-03T10:09:26.594Z,1019.25
2023-03-03T10:10:26.543Z,1019.60
2023-03-03T10:11:26.457Z,1019.24
2023-03-03T10:12:26.464Z,1019.23
2023-03-03T10:13:26.464Z,1019.26
2023-03-03T10:14:26.378Z,1019.48
2023-03-03T10:15:26.367Z,1019.59
2023-03-03T10:16:26.281Z,1019.30
2023-03-03T10:17:27.046Z,1019.30
2023-03-03T10:18:26.216Z,1019.29
2023-03-03T10:19:26.143Z,1019.63
2023-03-03T10:20:26.073Z,1019.30
2023-03-03T10:21:26.652Z,1019.36
2023-03-03T10:22:25.966Z,1019.30
2023-03-03T10:23:25.923Z,1019.27
2023-03-03T10:24:25.892Z,1019.32
2023-03-03T10:25:25.879Z,1019.25
2023-03-03T10:26:41.944Z,1019.29
2023-03-03T10:27:26.544Z,1019.67
2023-03-03T10:28:25.743Z,1019.29
2023-03-03T10:29:25.718Z,1019.33
2023-03-03T10:30:38.931Z,1019.28
2023-03-03T10:31:29.186Z,1019.33
2023-03-03T10:32:26.232Z,1019.32
2023-03-03T10:33:25.775Z,1019.33
2023-03-03T10:34:25.490Z,1019.31
2023-03-03T10:35:26.194Z,1019.31
2023-03-03T10:36:25.511Z,1019.59
2023-03-03T10:37:25.484Z,1019.63
2023-03-03T10:38:26.057Z,1019.66
2023-03-03T10:39:25.310Z,1019.35
2023-03-03T10:40:25.316Z,1019.66
2023-03-03T10:41:25.183Z,1019.28
2023-03-03T10:42:25.612Z,1019.27
2023-03-03T10:43:31.864Z,1019.26
2023-03-03T10:44:25.559Z,1019.67
2023-03-03T10:45:25.214Z,1019.74
2023-03-03T10:46:24.994Z,1019.70
2023-03-03T10:47:26.556Z,1019.70
2023-03-03T10:48:25.565Z,1019.39
2023-03-03T10:49:25.559Z,1019.35
2023-03-03T10:50:26.558Z,1019.38
2023-03-03T10:51:27.080Z,1019.38
2023-03-03T10:52:25.809Z,1019.76
2023-03-03T10:53:25.113Z,1019.76
2023-03-03T10:54:25.195Z,1019.78
2023-03-03T10:55:25.590Z,1019.47
2023-03-03T10:56:25.549Z,1019.76
2023-03-03T10:57:24.537Z,1019.42
2023-03-03T10:58:25.107Z,1019.44
2023-03-03T10:59:25.248Z,1019.83
2023-03-03T11:00:25.846Z,1019.88
2023-03-03T11:01:24.797Z,1019.53
2023-03-03T11:02:24.317Z,1019.84
2023-03-03T11:03:24.307Z,1019.50
2023-03-03T11:04:24.276Z,1019.52
2023-03-03T11:05:24.735Z,1019.55
2023-03-03T11:06:27.069Z,1019.52
2023-03-03T11:07:24.554Z,1019.50
2023-03-03T11:08:25.064Z,1019.53
2023-03-03T11:09:25.561Z,1019.48
2023-03-03T11:10:31.881Z,1019.50
2023-03-03T11:11:24.228Z,1019.50
2023-03-03T11:12:25.564Z,1019.51
2023-03-03T11:13:25.268Z,1019.51
2023-03-03T11:14:25.521Z,1019.54
2023-03-03T11:15:23.785Z,1019.53
2023-03-03T11:16:23.760Z,1019.76
2023-03-03T11:17:25.252Z,1019.85
2023-03-03T11:18:25.799Z,1019.55
2023-03-03T11:19:23.636Z,1019.68
2023-03-03T11:20:24.062Z,1019.52
2023-03-03T11:21:24.061Z,1019.50
2023-03-03T11:22:24.169Z,1019.49
2023-03-03T11:23:25.580Z,1019.49
2023-03-03T11:24:25.135Z,1019.51
2023-03-03T11:25:23.397Z,1019.60
2023-03-03T11:26:28.041Z,1019.51
2023-03-03T11:27:23.300Z,1019.53
2023-03-03T11:30:10.938Z,1019.49
2023-03-03T11:31:10.841Z,1019.82
2023-03-03T11:34:12.944Z,1019.75
2023-03-03T11:35:13.304Z,1019.41
2023-03-03T11:39:28.133Z,1019.70
2023-03-03T11:40:27.586Z,1019.40
2023-03-03T11:41:28.132Z,1019.73
2023-03-03T11:44:54.729Z,1019.64
2023-03-03T11:45:55.759Z,1019.57
2023-03-03T11:46:53.830Z,1019.68
2023-03-03T11:49:26.600Z,1019.66
2023-03-03T11:56:48.146Z,1019.26
2023-03-03T11:57:48.135Z,1019.25
2023-03-03T11:58:47.547Z,1019.57
2023-03-03T11:59:51.179Z,1019.23
2023-03-03T12:00:48.904Z,1019.31
2023-03-03T12:01:47.378Z,1019.43
2023-03-03T12:02:50.160Z,1019.18
2023-03-03T12:03:47.251Z,1019.47
2023-03-03T12:04:47.253Z,1019.48
2023-03-03T12:05:47.203Z,1019.14
2023-03-03T12:06:47.079Z,1019.11
2023-03-03T12:08:00.116Z,1019.14
2023-03-03T12:08:47.318Z,1019.13
2023-03-03T12:09:47.373Z,1019.13
2023-03-03T12:16:54.874Z,1019.12
2023-03-03T12:17:53.799Z,1019.13
2023-03-03T12:18:54.003Z,1019.12
2023-03-03T12:19:53.749Z,1019.07
2023-03-03T12:20:55.427Z,1019.42
2023-03-03T12:24:17.322Z,1019.05
2023-03-03T12:25:21.480Z,1019.02
2023-03-03T12:26:17.120Z,1019.08
2023-03-03T12:28:19.708Z,1019.40
2023-03-03T12:29:17.020Z,1019.10
2023-03-03T12:30:17.510Z,1019.12
2023-03-03T12:31:17.402Z,1019.47
2023-03-03T12:32:18.357Z,1019.05
2023-03-03T12:33:17.695Z,1019.05